Airfield :
LOGIN :

Register | Disclaimer

   EN    FR    IT 

 










Legend :    VFR   Marginal VFR   IFR   Intensive IFR   Very Intensive IFR
Visi :
Ceiling :
>= 8 km
>= 3000ft
5 to 8 km
1000 to 3000 ft
1500m to 5 km
500 to 1000 ft
800 to 1500m
200 to 500 ft
< 800m
< 200 ft
Symbols :   Thunderstorms  Fog  Heavy snow  Heavy precipitations  Wind > 20 kt
SIGMETs :     Misc.  Thunderstorms  Icing  Turbulence  Mountain Waves  Volcanic Ashes






- Airport Elevation : 41 ft


LIRE - Pratica di Mare Air Base Pomezia

CURRENT METAR :
  • 071855Z 08001KT CAVOK 20/18 Q1021 RMK BKN BKN200 VIS MIN 9999 WIND THR13 03002KT WIND THR31 /////KT BLU

EXPIRED METARs :
  • 071755Z 19001KT 9999 SCT050 22/20 Q1021
  • 071655Z 24002KT 9999 FEW020 SCT070 22/20 Q1021 RMK BKN VIS MIN 9999 WIND THR13 25002KT WIND THR31 /////KT BLU

TAF TAF LIRE
Valid from the 07 at 18:00 until the 08 at 03:00 UTC


071700Z 0718/0803 VRB03KT 9999 FEW020 SCT050
TEMPO 0723/0803 7000 SCT012 BKN050



MET'MAP, your aeronautical weather chart ! - Copyright ORBIFLY December 2007 - Disclaimer

ORBIFLY MET'MAP TEAM :

Programming & Development : Alexandra Zaïnal
Original concept : Baudouin d'Aumeries
Technical & hardware support : Manuel Goepfert
Assistance : Marc-Olivier Méhu




SOURCES & CREDITS :

   NOAA